Time;durP1;ratioP1;P1;durP2;ratioP2;P2;SDS_P1;SDS_P2;PMS_P1;PMS_P2;Temp;Humidity;BMP_temperature;BMP_pressure;BME280_temperature;BME280_humidity;BME280_pressure;Samples;Min_cycle;Max_cycle;Signal;HPM_P1;HPM_P2
2022/10/08 00:00:58;;;;;;;;;;;19.00;98.20;;;;;;5052327;28;20005;-23
2022/10/08 00:03:25;;;;;;;;;;;19.00;98.20;;;;;;5050596;28;19905;-23
2022/10/08 00:05:57;;;;;;;;;;;19.10;98.30;;;;;;5052174;28;19962;-23
2022/10/08 00:08:23;;;;;;;;;;;19.10;98.30;;;;;;5050821;28;19905;-23
2022/10/08 00:10:53;;;;;;;;;;;19.00;98.20;;;;;;5052130;28;19912;-24
2022/10/08 00:13:19;;;;;;;;;;;19.10;98.30;;;;;;5050380;28;19916;-24
2022/10/08 00:15:45;;;;;;;;;;;19.00;98.20;;;;;;5052090;28;19934;-23
2022/10/08 00:18:10;;;;;;;;;;;19.00;98.30;;;;;;5052417;28;20297;-23
2022/10/08 00:20:36;;;;;;;;;;;19.00;98.20;;;;;;5051987;28;19909;-24
2022/10/08 00:23:01;;;;;;;;;;;19.00;98.30;;;;;;5051774;28;19995;-24
2022/10/08 00:25:27;;;;;;;;;;;19.00;98.30;;;;;;5051884;28;20403;-24
2022/10/08 00:27:53;;;;;;;;;;;19.00;98.30;;;;;;5052097;28;20366;-23
2022/10/08 00:30:18;;;;;;;;;;;19.10;98.30;;;;;;5051388;28;19904;-23
2022/10/08 00:32:44;;;;;;;;;;;19.00;98.30;;;;;;5051559;28;19913;-23
2022/10/08 00:35:09;;;;;;;;;;;19.00;98.30;;;;;;5051835;28;20372;-23
2022/10/08 00:37:35;;;;;;;;;;;19.00;98.30;;;;;;5051812;28;19912;-23
2022/10/08 00:40:00;;;;;;;;;;;19.00;98.30;;;;;;5050398;28;20455;-24
2022/10/08 00:42:26;;;;;;;;;;;19.00;98.30;;;;;;5052046;28;19909;-23
2022/10/08 00:44:53;;;;;;;;;;;19.00;98.30;;;;;;5052095;28;19911;-23
2022/10/08 00:47:19;;;;;;;;;;;19.00;98.30;;;;;;5052043;28;19950;-23
2022/10/08 00:49:48;;;;;;;;;;;19.00;98.30;;;;;;5051794;28;19908;-24
2022/10/08 00:52:14;;;;;;;;;;;19.00;98.30;;;;;;5051923;28;20377;-24
2022/10/08 00:54:40;;;;;;;;;;;19.00;98.30;;;;;;5051615;28;20333;-24
2022/10/08 00:57:07;;;;;;;;;;;19.00;98.30;;;;;;5050452;28;20377;-24
2022/10/08 00:59:34;;;;;;;;;;;19.00;98.30;;;;;;5050474;28;19908;-24
2022/10/08 01:01:59;;;;;;;;;;;19.00;98.30;;;;;;5051846;28;19912;-24
2022/10/08 01:04:25;;;;;;;;;;;19.00;98.30;;;;;;5051432;28;20290;-23
2022/10/08 01:07:05;;;;;;;;;;;19.00;98.30;;;;;;5051940;28;19959;-23
2022/10/08 01:09:31;;;;;;;;;;;19.00;98.30;;;;;;5051793;28;19908;-23
2022/10/08 01:11:56;;;;;;;;;;;18.90;98.20;;;;;;5051940;28;19915;-23
2022/10/08 01:14:22;;;;;;;;;;;19.00;98.30;;;;;;5051923;28;20347;-23
2022/10/08 01:16:54;;;;;;;;;;;18.90;98.30;;;;;;5051944;28;20423;-23
2022/10/08 01:19:19;;;;;;;;;;;19.00;98.30;;;;;;5051747;28;19912;-23
2022/10/08 01:21:48;;;;;;;;;;;19.00;98.30;;;;;;5051429;28;20270;-23
2022/10/08 01:27:52;;;;;;;;;;;18.90;98.20;;;;;;5052133;28;20388;-23
2022/10/08 01:30:18;;;;;;;;;;;18.90;98.20;;;;;;5037437;28;19963;-23
2022/10/08 01:32:47;;;;;;;;;;;18.90;98.30;;;;;;5050209;28;19904;-23
2022/10/08 01:35:18;;;;;;;;;;;18.90;98.30;;;;;;5051560;28;20293;-23
2022/10/08 01:37:44;;;;;;;;;;;18.90;98.30;;;;;;5051295;28;19909;-23
2022/10/08 01:40:16;;;;;;;;;;;18.90;98.30;;;;;;5051556;28;20433;-23
2022/10/08 01:42:42;;;;;;;;;;;18.90;98.30;;;;;;5051767;28;20370;-23
2022/10/08 01:45:11;;;;;;;;;;;18.90;98.30;;;;;;5055193;28;20415;-23
2022/10/08 01:47:38;;;;;;;;;;;18.90;98.30;;;;;;5054821;28;19982;-23
2022/10/08 01:50:16;;;;;;;;;;;18.90;98.30;;;;;;5055356;28;19999;-23
2022/10/08 01:52:46;;;;;;;;;;;18.90;98.30;;;;;;5054886;28;19905;-23
2022/10/08 01:55:44;;;;;;;;;;;18.90;98.40;;;;;;5055379;28;19904;-23
2022/10/08 01:58:33;;;;;;;;;;;18.90;98.40;;;;;;5031828;28;19905;-23
2022/10/08 02:01:03;;;;;;;;;;;18.90;98.30;;;;;;5049162;28;20267;-24
2022/10/08 02:03:29;;;;;;;;;;;18.90;98.30;;;;;;5054920;28;19911;-22
2022/10/08 02:05:54;;;;;;;;;;;18.90;98.40;;;;;;5055135;28;19909;-23
2022/10/08 02:08:21;;;;;;;;;;;18.80;98.30;;;;;;5054813;28;19905;-24
2022/10/08 02:10:47;;;;;;;;;;;18.80;98.30;;;;;;5054853;28;20285;-24
2022/10/08 02:13:12;;;;;;;;;;;18.80;98.30;;;;;;5054064;28;20384;-23
2022/10/08 02:15:53;;;;;;;;;;;18.80;98.30;;;;;;5055234;28;19904;-23
2022/10/08 02:18:28;;;;;;;;;;;18.90;98.40;;;;;;5054587;28;19909;-23
2022/10/08 02:20:53;;;;;;;;;;;18.80;98.30;;;;;;5054802;28;19905;-23
2022/10/08 02:23:22;;;;;;;;;;;18.90;98.40;;;;;;5053667;28;20255;-24
2022/10/08 02:25:53;;;;;;;;;;;18.90;98.40;;;;;;5055895;28;20449;-23
2022/10/08 02:28:37;;;;;;;;;;;18.80;98.30;;;;;;5055165;28;19904;-23
2022/10/08 02:31:14;;;;;;;;;;;18.80;98.30;;;;;;5054899;28;19962;-23
2022/10/08 02:33:43;;;;;;;;;;;18.80;98.30;;;;;;5055194;28;20259;-24
2022/10/08 02:36:11;;;;;;;;;;;18.80;98.40;;;;;;5054514;28;19908;-23
2022/10/08 02:38:39;;;;;;;;;;;18.80;98.30;;;;;;5054530;28;20370;-23
2022/10/08 02:41:06;;;;;;;;;;;18.80;98.40;;;;;;5054343;28;20380;-23
2022/10/08 02:43:34;;;;;;;;;;;18.80;98.40;;;;;;5054505;28;19924;-24
2022/10/08 02:46:06;;;;;;;;;;;18.80;98.40;;;;;;5054011;28;19908;-23
2022/10/08 02:48:32;;;;;;;;;;;18.80;98.40;;;;;;5054040;28;19905;-24
2022/10/08 02:51:11;;;;;;;;;;;18.80;98.40;;;;;;5054653;28;19912;-23
2022/10/08 02:53:38;;;;;;;;;;;18.80;98.40;;;;;;5053327;28;19951;-23
2022/10/08 02:56:15;;;;;;;;;;;18.80;98.40;;;;;;5054098;28;19905;-23
2022/10/08 02:58:42;;;;;;;;;;;18.80;98.40;;;;;;5053605;28;19912;-23
2022/10/08 03:01:12;;;;;;;;;;;18.80;98.40;;;;;;5053822;28;19905;-23
2022/10/08 03:03:40;;;;;;;;;;;18.80;98.40;;;;;;5053585;28;19904;-23
2022/10/08 03:06:09;;;;;;;;;;;18.80;98.40;;;;;;5053208;28;19912;-23
2022/10/08 03:08:37;;;;;;;;;;;18.80;98.40;;;;;;5053431;28;19913;-23
2022/10/08 03:11:03;;;;;;;;;;;18.80;98.40;;;;;;5053669;28;19994;-23
2022/10/08 03:13:32;;;;;;;;;;;18.80;98.40;;;;;;5053282;28;20304;-23
2022/10/08 03:15:57;;;;;;;;;;;18.80;98.40;;;;;;5053546;28;19959;-23
2022/10/08 03:18:24;;;;;;;;;;;18.80;98.50;;;;;;5053334;28;19943;-23
2022/10/08 03:20:51;;;;;;;;;;;18.70;98.40;;;;;;5053333;28;20417;-24
2022/10/08 03:23:17;;;;;;;;;;;18.70;98.40;;;;;;5053135;28;20389;-23
2022/10/08 03:25:43;;;;;;;;;;;18.70;98.40;;;;;;5053497;28;20326;-23
2022/10/08 03:28:08;;;;;;;;;;;18.70;98.50;;;;;;5053297;28;20413;-23
2022/10/08 03:30:34;;;;;;;;;;;18.70;98.50;;;;;;5053214;28;19913;-23
2022/10/08 03:33:00;;;;;;;;;;;18.70;98.50;;;;;;5052948;28;19905;-23
2022/10/08 03:35:25;;;;;;;;;;;18.70;98.50;;;;;;5053175;28;19909;-23
2022/10/08 03:37:52;;;;;;;;;;;18.70;98.50;;;;;;5053433;28;19915;-23
2022/10/08 03:40:17;;;;;;;;;;;18.70;98.50;;;;;;5051409;28;20290;-23
2022/10/08 03:42:43;;;;;;;;;;;18.70;98.50;;;;;;5052886;28;19904;-24
2022/10/08 03:45:08;;;;;;;;;;;18.70;98.50;;;;;;5052950;28;19908;-23
2022/10/08 03:47:34;;;;;;;;;;;18.70;98.50;;;;;;5052961;28;20381;-23
2022/10/08 03:49:59;;;;;;;;;;;18.70;98.50;;;;;;5052922;28;20382;-23
2022/10/08 03:52:25;;;;;;;;;;;18.70;98.50;;;;;;5052882;28;19905;-23
2022/10/08 03:54:50;;;;;;;;;;;18.60;98.50;;;;;;5052655;28;19908;-23
2022/10/08 03:57:16;;;;;;;;;;;18.70;98.50;;;;;;5052811;28;19989;-23
2022/10/08 03:59:42;;;;;;;;;;;18.70;98.50;;;;;;5052906;28;19904;-23
2022/10/08 04:02:07;;;;;;;;;;;18.60;98.50;;;;;;5051521;28;19999;-23
2022/10/08 04:04:33;;;;;;;;;;;18.70;98.50;;;;;;5052512;28;19904;-23
2022/10/08 04:06:58;;;;;;;;;;;18.60;98.50;;;;;;5051552;28;20441;-24
2022/10/08 04:09:24;;;;;;;;;;;18.60;98.50;;;;;;5052494;28;20363;-24
2022/10/08 04:11:49;;;;;;;;;;;18.70;98.50;;;;;;5052561;28;19947;-24
2022/10/08 04:14:15;;;;;;;;;;;18.70;98.50;;;;;;5052039;28;19995;-24
2022/10/08 04:16:40;;;;;;;;;;;18.70;98.50;;;;;;5052366;28;19915;-23
2022/10/08 04:19:06;;;;;;;;;;;18.60;98.50;;;;;;5052269;28;19909;-23
2022/10/08 04:21:31;;;;;;;;;;;18.60;98.50;;;;;;5052450;28;19904;-23
2022/10/08 04:23:57;;;;;;;;;;;18.60;98.50;;;;;;5052256;28;19904;-23
2022/10/08 04:26:22;;;;;;;;;;;18.60;98.50;;;;;;5052419;28;19909;-23
2022/10/08 04:28:48;;;;;;;;;;;18.60;98.50;;;;;;5052428;28;19905;-23
2022/10/08 04:31:17;;;;;;;;;;;18.60;98.50;;;;;;5052151;28;19913;-23
2022/10/08 04:33:44;;;;;;;;;;;18.60;98.50;;;;;;5051850;28;19909;-23
2022/10/08 04:36:20;;;;;;;;;;;18.60;98.50;;;;;;5052239;28;20354;-23
2022/10/08 04:38:46;;;;;;;;;;;18.60;98.50;;;;;;5052075;28;19999;-23
2022/10/08 04:41:13;;;;;;;;;;;18.60;98.60;;;;;;5052092;28;19940;-23
2022/10/08 04:43:39;;;;;;;;;;;18.60;98.60;;;;;;5051756;28;19912;-23
2022/10/08 04:46:06;;;;;;;;;;;18.60;98.60;;;;;;5050324;28;20043;-23
2022/10/08 04:48:32;;;;;;;;;;;18.60;98.60;;;;;;5051675;28;19904;-23
2022/10/08 04:50:59;;;;;;;;;;;18.50;98.60;;;;;;5051742;28;19904;-23
2022/10/08 04:53:25;;;;;;;;;;;18.60;98.60;;;;;;5051477;28;19909;-23
2022/10/08 04:55:51;;;;;;;;;;;18.50;98.60;;;;;;5052170;28;19938;-23
2022/10/08 04:58:16;;;;;;;;;;;18.50;98.60;;;;;;5052004;28;19911;-23
2022/10/08 05:00:42;;;;;;;;;;;18.50;98.60;;;;;;5052009;28;19926;-23
2022/10/08 05:03:08;;;;;;;;;;;18.50;98.60;;;;;;5052302;28;20034;-23
2022/10/08 05:05:37;;;;;;;;;;;18.50;98.60;;;;;;5052122;28;19971;-23
2022/10/08 05:08:02;;;;;;;;;;;18.50;98.60;;;;;;5052058;28;19905;-23
2022/10/08 05:10:28;;;;;;;;;;;18.50;98.60;;;;;;5051742;28;20496;-23
2022/10/08 05:12:53;;;;;;;;;;;18.50;98.60;;;;;;5051472;28;19908;-23
2022/10/08 05:15:19;;;;;;;;;;;18.50;98.60;;;;;;5051957;28;19905;-23
2022/10/08 05:17:44;;;;;;;;;;;18.50;98.60;;;;;;5054264;28;20001;-23
2022/10/08 05:20:10;;;;;;;;;;;18.50;98.60;;;;;;5055516;28;19905;-23
2022/10/08 05:22:35;;;;;;;;;;;18.50;98.90;;;;;;5055148;28;19904;-23
2022/10/08 05:25:01;;;;;;;;;;;18.50;98.60;;;;;;5055726;28;19909;-23
2022/10/08 05:27:26;;;;;;;;;;;18.50;98.60;;;;;;5056284;28;19904;-23
2022/10/08 05:29:52;;;;;;;;;;;18.50;98.60;;;;;;5057635;28;19909;-23
2022/10/08 05:32:17;;;;;;;;;;;18.50;98.60;;;;;;5056176;28;20404;-23
2022/10/08 05:34:43;;;;;;;;;;;18.40;98.60;;;;;;5055734;28;19909;-23
2022/10/08 05:37:08;;;;;;;;;;;18.40;98.60;;;;;;5056261;28;19916;-23
2022/10/08 05:39:34;;;;;;;;;;;18.40;98.60;;;;;;5054067;28;20003;-23
2022/10/08 05:41:59;;;;;;;;;;;18.40;98.60;;;;;;5056126;28;19905;-23
2022/10/08 05:44:25;;;;;;;;;;;18.40;98.60;;;;;;5055181;28;20015;-23
2022/10/08 05:46:51;;;;;;;;;;;18.40;98.60;;;;;;5054348;28;20026;-23
2022/10/08 05:49:18;;;;;;;;;;;18.40;98.60;;;;;;5055623;28;20270;-23
2022/10/08 05:51:43;;;;;;;;;;;18.40;98.60;;;;;;5055730;28;19916;-23
2022/10/08 05:54:09;;;;;;;;;;;18.40;98.60;;;;;;5054622;28;19905;-23
2022/10/08 05:56:34;;;;;;;;;;;18.40;98.60;;;;;;5055460;28;19909;-23
2022/10/08 05:59:00;;;;;;;;;;;18.40;98.60;;;;;;5055075;28;19928;-23
2022/10/08 06:01:27;;;;;;;;;;;18.30;98.50;;;;;;5054884;28;20372;-23
2022/10/08 06:03:53;;;;;;;;;;;18.40;98.60;;;;;;5054588;28;20284;-24
2022/10/08 06:06:20;;;;;;;;;;;18.30;98.50;;;;;;5054797;28;20226;-24
2022/10/08 06:08:45;;;;;;;;;;;18.40;98.60;;;;;;5054773;28;19911;-23
2022/10/08 06:11:11;;;;;;;;;;;18.40;98.60;;;;;;5055041;28;20521;-23
2022/10/08 06:13:37;;;;;;;;;;;18.30;98.50;;;;;;5054167;28;20332;-23
2022/10/08 06:16:07;;;;;;;;;;;18.30;98.50;;;;;;5054738;28;20281;-23
2022/10/08 06:18:34;;;;;;;;;;;18.30;98.50;;;;;;5054718;28;19944;-23
2022/10/08 06:21:01;;;;;;;;;;;18.30;98.50;;;;;;5054194;28;20408;-23
2022/10/08 06:23:26;;;;;;;;;;;18.30;98.50;;;;;;5052916;28;20354;-23
2022/10/08 06:25:52;;;;;;;;;;;18.30;98.50;;;;;;5054367;28;19909;-23
2022/10/08 06:28:17;;;;;;;;;;;18.30;98.50;;;;;;5053358;28;19944;-23
2022/10/08 06:30:43;;;;;;;;;;;18.30;98.50;;;;;;5054112;28;19905;-23
2022/10/08 06:33:09;;;;;;;;;;;18.30;98.50;;;;;;5053939;28;19912;-23
2022/10/08 06:35:35;;;;;;;;;;;18.30;98.50;;;;;;5054257;28;20400;-23
2022/10/08 06:38:01;;;;;;;;;;;18.30;98.50;;;;;;5054594;28;20373;-23
2022/10/08 06:40:26;;;;;;;;;;;18.30;98.50;;;;;;5055355;28;19908;-24
2022/10/08 06:42:52;;;;;;;;;;;18.30;98.50;;;;;;5054807;28;19908;-24
2022/10/08 06:45:17;;;;;;;;;;;18.30;98.50;;;;;;5054722;28;19909;-24
2022/10/08 06:47:43;;;;;;;;;;;18.30;98.50;;;;;;5055119;28;20370;-24
2022/10/08 06:50:08;;;;;;;;;;;18.30;98.50;;;;;;5054900;28;20338;-24
2022/10/08 06:52:34;;;;;;;;;;;18.30;98.50;;;;;;5053131;28;19909;-24
2022/10/08 06:55:00;;;;;;;;;;;18.30;98.50;;;;;;5054217;28;19911;-24
2022/10/08 06:57:25;;;;;;;;;;;18.30;98.50;;;;;;5054332;28;19908;-24
2022/10/08 06:59:53;;;;;;;;;;;18.30;98.50;;;;;;5054781;28;20397;-24
2022/10/08 07:02:19;;;;;;;;;;;18.30;98.50;;;;;;5054272;28;20370;-24
2022/10/08 07:04:44;;;;;;;;;;;18.30;98.50;;;;;;5054198;28;19911;-24
2022/10/08 07:07:10;;;;;;;;;;;18.30;98.50;;;;;;5053481;28;19909;-24
2022/10/08 07:09:35;;;;;;;;;;;18.30;98.50;;;;;;5053482;28;19905;-24
2022/10/08 07:12:01;;;;;;;;;;;18.30;98.50;;;;;;5053201;28;19916;-24
2022/10/08 07:14:26;;;;;;;;;;;18.30;98.50;;;;;;5053849;28;20381;-24
2022/10/08 07:16:52;;;;;;;;;;;18.30;98.50;;;;;;5053569;28;19912;-24
2022/10/08 07:19:17;;;;;;;;;;;18.30;98.40;;;;;;5053387;28;19951;-24
2022/10/08 07:21:43;;;;;;;;;;;18.40;98.40;;;;;;5053600;28;19915;-24
2022/10/08 07:24:08;;;;;;;;;;;18.40;98.40;;;;;;5053203;28;19909;-24
2022/10/08 07:26:34;;;;;;;;;;;18.40;98.40;;;;;;5053015;28;19913;-24
2022/10/08 07:28:59;;;;;;;;;;;18.40;98.40;;;;;;5052423;28;20286;-23
2022/10/08 07:31:28;;;;;;;;;;;18.40;98.40;;;;;;5053057;28;20293;-24
2022/10/08 07:33:54;;;;;;;;;;;18.40;98.40;;;;;;5051584;28;19909;-24
2022/10/08 07:36:21;;;;;;;;;;;18.40;98.30;;;;;;5053463;28;19927;-24
2022/10/08 07:38:49;;;;;;;;;;;18.40;98.30;;;;;;5053521;28;19904;-24
2022/10/08 07:41:15;;;;;;;;;;;18.40;98.30;;;;;;5053326;28;19986;-24
2022/10/08 07:43:41;;;;;;;;;;;18.40;98.30;;;;;;5052568;28;20370;-24
2022/10/08 07:46:08;;;;;;;;;;;18.40;98.40;;;;;;5052996;28;19931;-24
2022/10/08 07:48:35;;;;;;;;;;;18.40;98.40;;;;;;5053105;28;19911;-24
2022/10/08 07:51:14;;;;;;;;;;;18.20;98.70;;;;;;5052888;28;20420;-24
2022/10/08 07:53:40;;;;;;;;;;;18.10;98.90;;;;;;5053872;28;19944;-24
2022/10/08 07:56:06;;;;;;;;;;;18.10;99.00;;;;;;5053010;28;19908;-24
2022/10/08 07:58:32;;;;;;;;;;;18.20;99.00;;;;;;5052798;28;19958;-24
2022/10/08 08:00:58;;;;;;;;;;;18.30;98.90;;;;;;5053117;28;19905;-24
2022/10/08 08:03:24;;;;;;;;;;;18.40;98.80;;;;;;5052607;28;19911;-24
2022/10/08 08:05:49;;;;;;;;;;;18.50;98.60;;;;;;5052670;28;19909;-24
2022/10/08 08:08:15;;;;;;;;;;;18.50;98.50;;;;;;5052905;28;19915;-24
2022/10/08 08:10:40;;;;;;;;;;;18.60;98.40;;;;;;5052242;28;19920;-24
2022/10/08 08:13:06;;;;;;;;;;;18.60;98.30;;;;;;5052031;28;19923;-24
2022/10/08 08:15:32;;;;;;;;;;;18.70;98.30;;;;;;5052795;28;20468;-24
2022/10/08 08:17:57;;;;;;;;;;;18.60;98.30;;;;;;5052897;28;19905;-24
2022/10/08 08:20:23;;;;;;;;;;;18.60;98.30;;;;;;5052364;28;19904;-24
2022/10/08 08:22:49;;;;;;;;;;;18.60;98.30;;;;;;5051780;28;19913;-25
2022/10/08 08:25:14;;;;;;;;;;;18.60;98.30;;;;;;5051946;28;19931;-25
2022/10/08 08:27:40;;;;;;;;;;;18.60;98.30;;;;;;5051895;28;19911;-24
2022/10/08 08:30:05;;;;;;;;;;;18.70;98.20;;;;;;5052115;28;19988;-24
2022/10/08 08:32:31;;;;;;;;;;;18.70;98.20;;;;;;5050392;28;19904;-24
2022/10/08 08:34:57;;;;;;;;;;;18.70;98.20;;;;;;5051988;28;20366;-24
2022/10/08 08:37:22;;;;;;;;;;;18.70;98.10;;;;;;5051948;28;19909;-24
2022/10/08 08:39:48;;;;;;;;;;;18.70;98.00;;;;;;5052112;28;19951;-24
2022/10/08 08:42:29;;;;;;;;;;;18.80;98.00;;;;;;5052021;28;19911;-24
2022/10/08 08:44:59;;;;;;;;;;;18.80;97.90;;;;;;5054319;28;19909;-24
2022/10/08 08:47:35;;;;;;;;;;;18.90;97.90;;;;;;5059037;28;19916;-23
2022/10/08 08:50:21;;;;;;;;;;;18.90;97.80;;;;;;5054530;28;19961;-24
2022/10/08 08:52:46;;;;;;;;;;;18.90;97.80;;;;;;5056456;28;20362;-24
2022/10/08 08:55:18;;;;;;;;;;;18.90;97.70;;;;;;5058424;28;19911;-24
2022/10/08 08:57:46;;;;;;;;;;;19.00;97.70;;;;;;5058533;28;20006;-24
2022/10/08 09:00:16;;;;;;;;;;;19.00;97.70;;;;;;5058294;28;20342;-24
2022/10/08 09:02:54;;;;;;;;;;;19.00;97.60;;;;;;5058190;28;19931;-24
2022/10/08 09:05:21;;;;;;;;;;;19.00;97.60;;;;;;5058339;28;19912;-24
2022/10/08 09:07:50;;;;;;;;;;;19.00;97.60;;;;;;5058333;28;19946;-24
2022/10/08 09:10:19;;;;;;;;;;;19.00;97.50;;;;;;5057158;28;19916;-24
2022/10/08 09:12:46;;;;;;;;;;;19.10;97.50;;;;;;5057756;28;20014;-24
2022/10/08 09:15:16;;;;;;;;;;;19.20;97.50;;;;;;5058284;28;19905;-24
2022/10/08 09:17:43;;;;;;;;;;;19.10;97.40;;;;;;5058238;28;20370;-25
2022/10/08 09:20:12;;;;;;;;;;;19.20;97.40;;;;;;5058315;28;20263;-24
2022/10/08 09:22:39;;;;;;;;;;;19.20;97.30;;;;;;5058135;28;20003;-23
2022/10/08 09:25:06;;;;;;;;;;;19.20;97.30;;;;;;5056995;28;19995;-24
2022/10/08 09:27:46;;;;;;;;;;;19.20;97.30;;;;;;5058388;28;19948;-24
2022/10/08 09:30:26;;;;;;;;;;;19.20;97.20;;;;;;5056785;28;19927;-24
2022/10/08 09:32:52;;;;;;;;;;;19.30;97.30;;;;;;5058113;28;19909;-24
2022/10/08 09:35:17;;;;;;;;;;;19.30;97.20;;;;;;5058078;28;19904;-24
2022/10/08 09:37:47;;;;;;;;;;;19.30;97.20;;;;;;5058074;28;19995;-24
2022/10/08 09:40:12;;;;;;;;;;;19.30;97.10;;;;;;5056908;28;19905;-24
2022/10/08 09:42:38;;;;;;;;;;;19.30;97.10;;;;;;5058062;28;20007;-24
2022/10/08 09:45:22;;;;;;;;;;;19.40;97.10;;;;;;5058148;28;19905;-24
2022/10/08 09:48:08;;;;;;;;;;;19.40;97.10;;;;;;5058356;28;19974;-24
2022/10/08 09:50:35;;;;;;;;;;;19.40;97.10;;;;;;5057978;28;19904;-24
2022/10/08 09:53:01;;;;;;;;;;;19.40;97.00;;;;;;5057906;28;19999;-24
2022/10/08 09:55:31;;;;;;;;;;;19.50;96.90;;;;;;5058078;28;19944;-24
2022/10/08 09:58:01;;;;;;;;;;;19.50;96.90;;;;;;5057882;28;20012;-24
2022/10/08 10:00:29;;;;;;;;;;;19.50;96.80;;;;;;5057946;28;19908;-23
2022/10/08 10:02:55;;;;;;;;;;;19.60;96.80;;;;;;5056604;28;19912;-24
2022/10/08 10:05:26;;;;;;;;;;;19.60;96.70;;;;;;5054107;28;19958;-24
2022/10/08 10:07:51;;;;;;;;;;;19.60;96.70;;;;;;5054519;28;19905;-24
2022/10/08 10:10:22;;;;;;;;;;;19.70;96.60;;;;;;5054526;28;19940;-24
2022/10/08 10:12:51;;;;;;;;;;;19.70;96.60;;;;;;5054141;28;19948;-24
2022/10/08 10:15:19;;;;;;;;;;;19.70;96.60;;;;;;5054503;28;19908;-24
2022/10/08 10:17:49;;;;;;;;;;;19.70;96.60;;;;;;5054394;28;19904;-24
2022/10/08 10:20:18;;;;;;;;;;;19.70;96.60;;;;;;5054394;28;20003;-24
2022/10/08 10:22:50;;;;;;;;;;;19.70;96.60;;;;;;5054200;28;19908;-24
2022/10/08 10:25:21;;;;;;;;;;;19.70;96.60;;;;;;5052847;28;19970;-24
2022/10/08 10:27:50;;;;;;;;;;;19.70;96.60;;;;;;5054123;28;19905;-25
2022/10/08 10:30:18;;;;;;;;;;;19.70;96.60;;;;;;5054238;28;20229;-25
2022/10/08 10:33:02;;;;;;;;;;;19.70;96.60;;;;;;5054081;28;20274;-25
2022/10/08 10:35:29;;;;;;;;;;;19.70;96.50;;;;;;5054125;28;19966;-25
2022/10/08 10:38:00;;;;;;;;;;;19.70;96.60;;;;;;5053886;28;19913;-25
2022/10/08 10:40:29;;;;;;;;;;;19.70;96.50;;;;;;5054705;28;19957;-25
2022/10/08 10:43:11;;;;;;;;;;;19.70;96.50;;;;;;5059224;28;19909;-24
2022/10/08 10:45:38;;;;;;;;;;;19.70;96.50;;;;;;5062295;28;20382;-24
2022/10/08 10:48:06;;;;;;;;;;;19.70;96.50;;;;;;5054112;28;19905;-24
2022/10/08 10:50:38;;;;;;;;;;;19.70;96.40;;;;;;5055164;28;19912;-24
2022/10/08 10:53:06;;;;;;;;;;;19.70;96.40;;;;;;5055221;28;19959;-24
2022/10/08 10:55:36;;;;;;;;;;;19.80;96.30;;;;;;5055076;28;19911;-24
2022/10/08 10:58:07;;;;;;;;;;;19.80;96.30;;;;;;5054896;28;19904;-24
2022/10/08 11:00:48;;;;;;;;;;;19.80;96.20;;;;;;5053252;28;19911;-24
2022/10/08 11:03:32;;;;;;;;;;;19.80;96.20;;;;;;5052953;28;19909;-24
2022/10/08 11:06:27;;;;;;;;;;;19.90;96.10;;;;;;5054731;28;19962;-24
2022/10/08 11:08:59;;;;;;;;;;;19.90;96.10;;;;;;5055509;28;19905;-24
2022/10/08 11:11:45;;;;;;;;;;;19.90;96.00;;;;;;5054528;28;19932;-24
2022/10/08 11:14:21;;;;;;;;;;;20.00;96.00;;;;;;5053424;28;20362;-24
2022/10/08 11:16:49;;;;;;;;;;;20.00;96.00;;;;;;5054540;28;20212;-24
2022/10/08 11:19:44;;;;;;;;;;;20.00;96.00;;;;;;5054368;28;20378;-24
2022/10/08 11:22:15;;;;;;;;;;;20.00;95.90;;;;;;5016920;28;19971;-24
2022/10/08 11:24:50;;;;;;;;;;;20.10;95.90;;;;;;5053529;28;19950;-24
2022/10/08 11:27:34;;;;;;;;;;;20.10;95.90;;;;;;5053796;28;19913;-24
2022/10/08 11:30:02;;;;;;;;;;;20.10;95.80;;;;;;5054240;28;20007;-24
2022/10/08 11:32:28;;;;;;;;;;;20.10;95.80;;;;;;5054132;28;19909;-24
2022/10/08 11:35:13;;;;;;;;;;;20.10;95.80;;;;;;5053776;28;19911;-24
2022/10/08 11:37:47;;;;;;;;;;;20.20;95.80;;;;;;5053166;28;19909;-24
2022/10/08 11:40:18;;;;;;;;;;;20.20;95.70;;;;;;5053726;28;19908;-24
2022/10/08 11:42:51;;;;;;;;;;;20.20;95.60;;;;;;5053601;28;19963;-24
2022/10/08 11:45:22;;;;;;;;;;;20.20;95.60;;;;;;5053522;28;19905;-24
2022/10/08 11:47:49;;;;;;;;;;;20.20;95.60;;;;;;5051992;28;19955;-24
2022/10/08 11:50:35;;;;;;;;;;;20.20;95.60;;;;;;5053127;28;19909;-24
2022/10/08 11:53:10;;;;;;;;;;;20.20;95.50;;;;;;5051929;28;19911;-24
2022/10/08 11:55:36;;;;;;;;;;;20.20;95.50;;;;;;5052851;28;20342;-24
2022/10/08 11:58:15;;;;;;;;;;;20.20;95.50;;;;;;5052693;28;19905;-24
2022/10/08 12:00:42;;;;;;;;;;;20.20;95.50;;;;;;5051345;28;19909;-24
2022/10/08 12:03:26;;;;;;;;;;;20.20;95.50;;;;;;5051130;28;19905;-24
2022/10/08 12:05:53;;;;;;;;;;;20.20;95.50;;;;;;5055590;28;19940;-24
2022/10/08 12:08:37;;;;;;;;;;;20.20;95.50;;;;;;5055467;28;19905;-24
2022/10/08 12:11:23;;;;;;;;;;;20.20;95.50;;;;;;5052722;28;20373;-24
2022/10/08 12:14:08;;;;;;;;;;;20.20;95.50;;;;;;5044968;28;19920;-24
2022/10/08 12:16:46;;;;;;;;;;;20.20;95.50;;;;;;5051989;28;19912;-24
2022/10/08 12:19:30;;;;;;;;;;;20.20;95.50;;;;;;5052388;28;19904;-24
2022/10/08 12:21:55;;;;;;;;;;;20.20;95.50;;;;;;5052603;28;19920;-24
2022/10/08 12:24:36;;;;;;;;;;;20.30;95.50;;;;;;5051901;28;19904;-24
2022/10/08 12:27:17;;;;;;;;;;;20.30;95.40;;;;;;5051488;28;19995;-24
2022/10/08 12:29:51;;;;;;;;;;;20.30;95.40;;;;;;5050677;28;19974;-24
2022/10/08 12:32:17;;;;;;;;;;;20.30;95.30;;;;;;5051914;28;20309;-24
2022/10/08 12:34:43;;;;;;;;;;;20.30;95.30;;;;;;5051744;28;19959;-24
2022/10/08 12:37:27;;;;;;;;;;;20.40;95.20;;;;;;5052030;28;19908;-24
2022/10/08 12:39:53;;;;;;;;;;;20.40;95.20;;;;;;5051914;28;19904;-24
2022/10/08 12:42:18;;;;;;;;;;;20.40;95.20;;;;;;5051900;28;19908;-24
2022/10/08 12:44:56;;;;;;;;;;;20.40;95.20;;;;;;5051678;28;19911;-24
2022/10/08 12:47:22;;;;;;;;;;;20.40;95.30;;;;;;5052341;28;19912;-24
2022/10/08 12:49:56;;;;;;;;;;;20.40;95.20;;;;;;5052089;28;19905;-24
2022/10/08 12:52:22;;;;;;;;;;;20.40;95.20;;;;;;5052099;28;20277;-24
2022/10/08 12:54:52;;;;;;;;;;;20.40;95.30;;;;;;5051812;28;19987;-24
2022/10/08 12:57:33;;;;;;;;;;;20.40;95.30;;;;;;5051753;28;19943;-24
2022/10/08 13:00:04;;;;;;;;;;;20.40;95.30;;;;;;5051687;28;19908;-24
2022/10/08 13:02:36;;;;;;;;;;;20.30;95.40;;;;;;5051376;28;20010;-24
2022/10/08 13:05:02;;;;;;;;;;;20.30;95.40;;;;;;5051631;28;20354;-24
2022/10/08 13:07:32;;;;;;;;;;;20.30;95.40;;;;;;5051615;28;20378;-24
2022/10/08 13:09:59;;;;;;;;;;;20.30;95.50;;;;;;5051714;28;19951;-24
2022/10/08 13:12:24;;;;;;;;;;;20.20;95.50;;;;;;5051290;28;19995;-24
2022/10/08 13:15:04;;;;;;;;;;;20.20;95.60;;;;;;5052046;28;19971;-24
2022/10/08 13:17:31;;;;;;;;;;;20.20;95.60;;;;;;5051520;28;20414;-24
2022/10/08 13:20:06;;;;;;;;;;;20.20;95.60;;;;;;5051586;28;19904;-24
2022/10/08 13:22:31;;;;;;;;;;;20.30;95.60;;;;;;5051275;28;19939;-24
2022/10/08 13:24:57;;;;;;;;;;;20.20;95.50;;;;;;5051474;28;20347;-24
2022/10/08 13:27:30;;;;;;;;;;;20.30;95.50;;;;;;5049987;28;19908;-24
2022/10/08 13:29:56;;;;;;;;;;;20.30;95.40;;;;;;5051425;28;19915;-24
2022/10/08 13:32:27;;;;;;;;;;;20.30;95.40;;;;;;5051226;28;19904;-24
2022/10/08 13:34:58;;;;;;;;;;;20.40;95.40;;;;;;5051862;28;19904;-24
2022/10/08 13:37:29;;;;;;;;;;;20.40;95.30;;;;;;5051380;28;19908;-24
2022/10/08 13:39:56;;;;;;;;;;;20.40;95.20;;;;;;5055177;28;19954;-24
2022/10/08 13:42:23;;;;;;;;;;;20.30;95.20;;;;;;5054983;28;19904;-24
2022/10/08 13:44:49;;;;;;;;;;;20.30;95.30;;;;;;5054947;28;19911;-24
2022/10/08 13:47:16;;;;;;;;;;;20.20;95.40;;;;;;5054977;28;19912;-24
2022/10/08 13:49:43;;;;;;;;;;;20.20;95.40;;;;;;5055061;28;19911;-24
2022/10/08 13:52:19;;;;;;;;;;;20.20;95.40;;;;;;5054865;28;19905;-24
2022/10/08 13:54:44;;;;;;;;;;;20.20;95.40;;;;;;5054724;28;19912;-24
2022/10/08 13:57:10;;;;;;;;;;;20.20;95.40;;;;;;5054979;28;19908;-24
2022/10/08 13:59:35;;;;;;;;;;;20.20;95.30;;;;;;5054970;28;19913;-24
2022/10/08 14:02:01;;;;;;;;;;;20.20;95.30;;;;;;5053424;28;19947;-24
2022/10/08 14:04:26;;;;;;;;;;;20.20;95.30;;;;;;5054411;28;19944;-24
2022/10/08 14:06:53;;;;;;;;;;;20.20;95.20;;;;;;5054662;28;19913;-24
2022/10/08 14:09:20;;;;;;;;;;;20.20;95.20;;;;;;5054754;28;19911;-24
2022/10/08 14:11:49;;;;;;;;;;;20.20;95.20;;;;;;5054814;28;20370;-24
2022/10/08 14:14:15;;;;;;;;;;;20.20;95.20;;;;;;5054379;28;19999;-24
2022/10/08 14:16:41;;;;;;;;;;;20.20;95.20;;;;;;5054518;28;19967;-24
2022/10/08 14:19:07;;;;;;;;;;;20.20;95.20;;;;;;5054301;28;19963;-24
2022/10/08 14:21:33;;;;;;;;;;;20.30;95.30;;;;;;5054668;28;20290;-24
2022/10/08 14:23:59;;;;;;;;;;;20.30;95.30;;;;;;5054026;28;19950;-24
2022/10/08 14:26:24;;;;;;;;;;;20.30;95.30;;;;;;5054268;28;19909;-24
2022/10/08 14:28:50;;;;;;;;;;;20.30;95.30;;;;;;5054203;28;19905;-24